Time;durP1;ratioP1;P1;durP2;ratioP2;P2;SDS_P1;SDS_P2;PMS_P1;PMS_P2;Temp;Humidity;BMP_temperature;BMP_pressure;BME280_temperature;BME280_humidity;BME280_pressure;Samples;Min_cycle;Max_cycle;Signal;HPM_P1;HPM_P2
2022/11/08 00:02:47;;;;;;;45.93;42.00;;;;;;;12.29;100.00;100804.81;4992813;28;20452;-47
2022/11/08 00:16:20;;;;;;;44.37;40.63;;;;;;;12.30;100.00;100811.00;4994530;28;20469;-47
2022/11/08 00:18:47;;;;;;;42.30;38.67;;;;;;;12.31;100.00;100815.28;4995328;28;20488;-45
2022/11/08 00:21:15;;;;;;;42.40;38.80;;;;;;;12.32;100.00;100817.78;5002410;28;20429;-45
2022/11/08 00:23:43;;;;;;;43.47;39.23;;;;;;;12.30;100.00;100811.00;5006722;28;20473;-47
2022/11/08 00:26:10;;;;;;;41.87;38.60;;;;;;;12.32;100.00;100816.94;5014039;28;20882;-45
2022/11/08 00:28:38;;;;;;;42.57;38.77;;;;;;;12.33;100.00;100816.75;5014792;28;20519;-49
2022/11/08 00:31:06;;;;;;;42.40;39.00;;;;;;;12.32;100.00;100809.75;5014631;28;20515;-44
2022/11/08 00:33:36;;;;;;;44.23;40.33;;;;;;;12.33;100.00;100807.91;5014400;28;20429;-46
2022/11/08 00:36:04;;;;;;;42.03;38.47;;;;;;;12.29;100.00;100810.16;5014060;28;20469;-47
2022/11/08 00:38:32;;;;;;;42.40;39.10;;;;;;;12.31;100.00;100813.44;5014725;28;20938;-53
2022/11/08 00:40:59;;;;;;;43.13;38.97;;;;;;;12.33;100.00;100814.09;5014007;28;20441;-50
2022/11/08 00:43:27;;;;;;;40.90;38.03;;;;;;;12.32;100.00;100811.59;5014317;28;20511;-51
2022/11/08 00:45:54;;;;;;;41.67;37.67;;;;;;;12.33;100.00;100805.25;5013942;28;20535;-54
2022/11/08 00:48:22;;;;;;;40.60;37.40;;;;;;;12.34;100.00;100815.72;5014109;28;20992;-52
2022/11/08 00:50:51;;;;;;;41.30;37.90;;;;;;;12.36;100.00;100815.53;5013991;28;20433;-53
2022/11/08 00:53:18;;;;;;;39.53;36.53;;;;;;;12.34;100.00;100813.03;5013904;28;20492;-53
2022/11/08 00:55:46;;;;;;;41.07;37.53;;;;;;;12.36;100.00;100819.03;5013556;28;20468;-55
2022/11/08 00:58:13;;;;;;;40.73;37.23;;;;;;;12.36;100.00;100813.69;5014085;28;20437;-48
2022/11/08 01:00:41;;;;;;;41.47;38.10;;;;;;;12.37;100.00;100809.94;5013923;28;20444;-52
2022/11/08 01:03:18;;;;;;;39.77;36.37;;;;;;;12.37;100.00;100814.47;5013842;28;20437;-51
2022/11/08 01:05:46;;;;;;;39.80;36.90;;;;;;;12.38;100.00;100813.47;5013206;28;20476;-54
2022/11/08 01:08:16;;;;;;;39.03;36.03;;;;;;;12.38;100.00;100808.09;5014126;28;20854;-52
2022/11/08 01:10:46;;;;;;;39.90;36.70;;;;;;;12.37;100.00;100812.63;5013856;28;20842;-54
2022/11/08 01:13:15;;;;;;;39.27;36.43;;;;;;;12.37;100.00;100812.63;5013735;28;20437;-49
2022/11/08 01:15:44;;;;;;;40.10;36.83;;;;;;;12.36;100.00;100813.69;5012409;28;21056;-51
2022/11/08 01:18:13;;;;;;;39.80;36.40;;;;;;;12.36;100.00;100816.34;5013615;28;20475;-51
2022/11/08 01:20:42;;;;;;;40.70;37.37;;;;;;;12.37;100.00;100822.50;5007773;28;20445;-53
2022/11/08 01:23:10;;;;;;;40.33;37.10;;;;;;;12.38;100.00;100813.47;5005393;28;20460;-49
2022/11/08 01:25:41;;;;;;;40.97;37.77;;;;;;;12.40;100.00;100816.72;5012919;28;20472;-50
2022/11/08 01:28:09;;;;;;;39.60;36.77;;;;;;;12.40;100.00;100808.72;5013459;28;20433;-47
2022/11/08 01:30:38;;;;;;;40.57;37.17;;;;;;;12.38;100.00;100814.28;5013326;28;20858;-47
2022/11/08 01:33:06;;;;;;;40.43;37.03;;;;;;;12.38;100.00;100808.94;5013493;28;20515;-46
2022/11/08 01:35:35;;;;;;;39.70;36.73;;;;;;;12.38;100.00;100811.59;5012999;28;21091;-48
2022/11/08 01:38:04;;;;;;;39.30;36.17;;;;;;;12.38;100.00;100808.09;5013071;28;21052;-50
2022/11/08 01:40:33;;;;;;;40.07;37.07;;;;;;;12.39;100.00;100807.09;5013213;28;20441;-52
2022/11/08 01:43:31;;;;;;;39.73;36.60;;;;;;;12.40;100.00;100803.38;5012861;28;20429;-46
2022/11/08 01:46:35;;;;;;;40.23;36.93;;;;;;;12.40;100.00;100800.69;5012574;28;20523;-46
2022/11/08 01:49:38;;;;;;;39.13;35.73;;;;;;;12.40;100.00;100811.38;5012974;28;20972;-46
2022/11/08 01:52:23;;;;;;;39.43;36.20;;;;;;;12.40;100.00;100804.19;5012649;28;20945;-47
2022/11/08 01:55:00;;;;;;;41.80;38.30;;;;;;;12.39;100.00;100807.91;5010525;28;20515;-47
2022/11/08 01:57:33;;;;;;;41.43;38.43;;;;;;;12.41;100.00;100805.00;5012823;28;20441;-51
2022/11/08 02:00:06;;;;;;;39.93;36.73;;;;;;;12.41;100.00;100811.19;5012974;28;20441;-49
2022/11/08 02:02:35;;;;;;;38.40;35.63;;;;;;;12.43;100.00;100817.16;5012711;28;20463;-48
2022/11/08 02:05:06;;;;;;;40.30;36.80;;;;;;;12.42;100.00;100796.81;5012223;28;20983;-47
2022/11/08 02:07:34;;;;;;;38.87;35.70;;;;;;;12.43;100.00;100803.78;5012792;28;20453;-46
2022/11/08 02:10:03;;;;;;;38.73;35.70;;;;;;;12.44;100.00;100796.59;5012692;28;20487;-49
2022/11/08 02:12:30;;;;;;;39.90;36.80;;;;;;;12.44;100.00;100801.94;5012279;28;20989;-50
2022/11/08 02:14:59;;;;;;;39.57;36.37;;;;;;;12.44;100.00;100801.94;5012276;28;20468;-48
2022/11/08 02:17:28;;;;;;;39.50;36.70;;;;;;;12.45;100.00;100803.59;5012382;28;20465;-51
2022/11/08 02:19:55;;;;;;;40.73;37.37;;;;;;;12.45;100.00;100795.56;5010280;28;20437;-49
2022/11/08 02:22:28;;;;;;;39.50;36.10;;;;;;;12.45;100.00;100804.41;5001353;28;20430;-52
2022/11/08 02:24:59;;;;;;;39.47;36.53;;;;;;;12.44;100.00;100801.94;5012026;28;20523;-48
2022/11/08 02:27:27;;;;;;;38.63;35.53;;;;;;;12.44;100.00;100802.75;5011666;28;20583;-47
2022/11/08 02:29:56;;;;;;;39.83;36.87;;;;;;;12.45;100.00;100795.56;5012696;28;20429;-50
2022/11/08 02:32:24;;;;;;;39.00;35.80;;;;;;;12.45;100.00;100792.88;5012286;28;20437;-51
2022/11/08 02:34:56;;;;;;;38.33;35.43;;;;;;;12.45;100.00;100807.09;5011866;28;20472;-48
2022/11/08 02:37:25;;;;;;;38.73;36.03;;;;;;;12.43;100.00;100803.78;5012168;28;20449;-49
2022/11/08 02:39:52;;;;;;;40.17;36.57;;;;;;;12.43;100.00;100800.28;5012133;28;20433;-49
2022/11/08 02:42:21;;;;;;;38.73;35.73;;;;;;;12.42;100.00;100793.31;5012024;28;20437;-46
2022/11/08 02:44:49;;;;;;;39.23;35.90;;;;;;;12.41;100.00;100803.16;5011737;28;20538;-49
2022/11/08 02:47:16;;;;;;;39.60;36.30;;;;;;;12.40;100.00;100798.84;5012060;28;20453;-48
2022/11/08 02:49:44;;;;;;;38.70;35.90;;;;;;;12.38;100.00;100792.88;5012131;28;20495;-46
2022/11/08 02:52:12;;;;;;;39.17;36.07;;;;;;;12.37;100.00;100788.56;5011705;28;20931;-50
2022/11/08 02:54:39;;;;;;;40.30;37.50;;;;;;;12.35;100.00;100797.81;5011811;28;20460;-51
2022/11/08 02:57:07;;;;;;;42.07;38.87;;;;;;;12.32;100.00;100792.88;5012041;28;20453;-50
2022/11/08 02:59:36;;;;;;;41.47;38.37;;;;;;;12.30;100.00;100787.75;5012022;28;20447;-49
2022/11/08 03:02:03;;;;;;;39.73;36.97;;;;;;;12.31;100.00;100793.91;5011702;28;20436;-49
2022/11/08 03:04:31;;;;;;;40.57;37.40;;;;;;;12.29;100.00;100785.28;5011289;28;20457;-48
2022/11/08 03:06:58;;;;;;;40.67;37.07;;;;;;;12.27;100.00;100790.84;5012016;28;20457;-48
2022/11/08 03:09:26;;;;;;;39.97;37.03;;;;;;;12.25;100.00;100784.03;5011748;28;20433;-45
2022/11/08 03:11:54;;;;;;;40.53;37.83;;;;;;;12.22;100.00;100787.94;5011680;28;20433;-50
2022/11/08 03:14:22;;;;;;;44.30;37.63;;;;;;;12.19;100.00;100786.50;5011419;28;20441;-49
2022/11/08 03:16:51;;;;;;;40.90;37.80;;;;;;;12.17;100.00;100788.56;5011663;28;20461;-48
2022/11/08 03:19:18;;;;;;;40.13;37.20;;;;;;;12.15;100.00;100787.97;5011571;28;20437;-46
2022/11/08 03:21:46;;;;;;;40.53;37.40;;;;;;;12.12;100.00;100788.38;5002262;28;20434;-52
2022/11/08 03:24:13;;;;;;;39.37;36.10;;;;;;;12.10;100.00;100784.25;5007072;28;20939;-49
2022/11/08 03:26:41;;;;;;;40.70;37.40;;;;;;;12.10;100.00;100789.59;5011635;28;20480;-51
2022/11/08 03:29:09;;;;;;;39.87;36.90;;;;;;;12.08;100.00;100778.28;5011680;28;20495;-50
2022/11/08 03:31:36;;;;;;;38.47;35.40;;;;;;;12.07;100.00;100787.31;5011338;28;20850;-50
2022/11/08 03:34:05;;;;;;;39.00;36.30;;;;;;;12.05;100.00;100782.19;5011842;28;21059;-49
2022/11/08 03:36:33;;;;;;;39.70;36.50;;;;;;;12.05;100.00;100784.88;5011031;28;20495;-49
2022/11/08 03:39:00;;;;;;;41.40;37.50;;;;;;;12.03;100.00;100789.59;5014896;28;20425;-52
2022/11/08 03:41:28;;;;;;;38.90;36.17;;;;;;;12.03;100.00;100781.59;5015259;28;20441;-50
2022/11/08 03:43:55;;;;;;;39.43;35.97;;;;;;;12.04;100.00;100783.22;5015297;28;20494;-48
2022/11/08 03:46:23;;;;;;;38.43;35.50;;;;;;;12.03;100.00;100783.44;5014945;28;20477;-50
2022/11/08 03:48:51;;;;;;;38.93;36.23;;;;;;;12.03;100.00;100781.59;5015165;28;20471;-47
2022/11/08 03:51:19;;;;;;;39.87;37.13;;;;;;;12.04;100.00;100777.03;5015190;28;20433;-47
2022/11/08 03:53:47;;;;;;;39.87;36.80;;;;;;;12.04;100.00;100777.03;5015236;28;20436;-48
2022/11/08 03:56:14;;;;;;;36.50;34.23;;;;;;;12.01;100.00;100770.25;5014816;28;20532;-48
2022/11/08 03:58:42;;;;;;;38.73;35.73;;;;;;;12.02;100.00;100773.75;5014961;28;20467;-51
2022/11/08 04:01:10;;;;;;;39.13;36.20;;;;;;;12.03;100.00;100776.25;5015267;28;20440;-45
2022/11/08 04:03:37;;;;;;;39.17;36.30;;;;;;;12.01;100.00;100764.91;5015001;28;20922;-49
2022/11/08 04:06:05;;;;;;;39.23;36.80;;;;;;;12.03;100.00;100765.56;5014160;28;20523;-54
2022/11/08 04:08:35;;;;;;;39.67;36.63;;;;;;;12.02;100.00;100763.91;5014884;28;20437;-48
2022/11/08 04:16:30;;;;;;;39.77;37.23;;;;;;;11.99;100.00;100760.81;5014173;28;20881;-49
2022/11/08 04:21:45;;;;;;;39.47;36.70;;;;;;;11.97;100.00;100763.69;5005553;28;20591;-53
2022/11/08 04:24:14;;;;;;;39.73;36.33;;;;;;;11.97;100.00;100763.69;5009877;28;20438;-49
2022/11/08 04:26:42;;;;;;;38.70;35.30;;;;;;;11.97;100.00;100760.19;5014475;28;20477;-46
2022/11/08 04:29:10;;;;;;;37.80;35.30;;;;;;;11.97;100.00;100763.69;5014686;28;20930;-50
2022/11/08 04:31:38;;;;;;;39.20;36.70;;;;;;;11.97;100.00;100761.03;5014170;28;20935;-48
2022/11/08 04:34:05;;;;;;;38.97;36.37;;;;;;;11.96;100.00;100763.88;5014374;28;20433;-48
2022/11/08 04:36:33;;;;;;;38.77;36.13;;;;;;;11.96;100.00;100761.22;5033672;28;21026;-49
2022/11/08 04:39:01;;;;;;;39.80;37.13;;;;;;;11.97;100.00;100757.53;5034200;28;20759;-48
2022/11/08 04:41:30;;;;;;;40.33;37.30;;;;;;;11.94;100.00;100758.75;5034088;28;20436;-49
2022/11/08 04:43:58;;;;;;;40.03;37.30;;;;;;;11.94;100.00;100764.09;5034376;28;20424;-53
2022/11/08 04:46:27;;;;;;;39.57;36.37;;;;;;;11.92;100.00;100760.81;5033344;28;20533;-46
2022/11/08 04:48:56;;;;;;;39.77;37.20;;;;;;;11.91;100.00;100759.19;5032792;28;20436;-50
2022/11/08 04:51:26;;;;;;;38.93;36.20;;;;;;;11.89;100.00;100765.72;5033896;28;20440;-51
2022/11/08 04:53:55;;;;;;;40.90;37.57;;;;;;;11.87;100.00;100760.59;5033897;28;20463;-51
2022/11/08 04:56:23;;;;;;;40.13;37.30;;;;;;;11.86;100.00;100760.78;5033199;28;20464;-49
2022/11/08 04:58:55;;;;;;;40.90;38.40;;;;;;;11.85;100.00;100767.19;5033921;28;20428;-50
2022/11/08 05:01:24;;;;;;;41.13;38.83;;;;;;;11.82;100.00;100757.72;5033429;28;20436;-49
2022/11/08 05:03:53;;;;;;;41.67;38.63;;;;;;;11.83;100.00;100755.84;5033806;28;20432;-52
2022/11/08 05:06:23;;;;;;;43.70;40.33;;;;;;;11.83;100.00;100756.69;5032997;28;20900;-48
2022/11/08 05:08:51;;;;;;;42.60;39.53;;;;;;;11.80;100.00;100753.63;5033430;28;21004;-51
2022/11/08 05:11:21;;;;;;;40.90;38.00;;;;;;;11.77;100.00;100754.81;5033355;28;21053;-50
2022/11/08 05:13:50;;;;;;;40.50;37.83;;;;;;;11.77;100.00;100743.34;5033365;28;20490;-48
2022/11/08 05:16:21;;;;;;;40.40;37.80;;;;;;;11.76;100.00;100755.03;5032719;28;20464;-51
2022/11/08 05:18:49;;;;;;;43.07;39.50;;;;;;;11.75;100.00;100743.53;5033275;28;20429;-49
2022/11/08 05:24:07;;;;;;;41.67;38.40;;;;;;;11.73;100.00;100742.09;5022228;28;20995;-51
2022/11/08 05:26:36;;;;;;;42.57;39.33;;;;;;;11.71;100.00;100749.50;5033225;28;20492;-52
2022/11/08 05:29:04;;;;;;;41.00;37.80;;;;;;;11.70;100.00;100748.66;5033259;28;20432;-46
2022/11/08 05:31:33;;;;;;;41.77;38.57;;;;;;;11.68;100.00;100756.00;5032924;28;20444;-51
2022/11/08 05:34:00;;;;;;;42.87;39.87;;;;;;;11.68;100.00;100741.84;5033199;28;20482;-46
2022/11/08 05:36:28;;;;;;;41.80;39.00;;;;;;;11.65;100.00;100746.56;5032437;28;20526;-53
2022/11/08 05:38:56;;;;;;;41.33;38.60;;;;;;;11.65;100.00;100751.91;5033073;28;20467;-49
2022/11/08 05:41:25;;;;;;;42.20;38.80;;;;;;;11.64;100.00;100746.78;5032661;28;21190;-47
2022/11/08 05:43:54;;;;;;;42.60;39.87;;;;;;;11.62;100.00;100743.47;5033075;28;20428;-48
2022/11/08 05:46:23;;;;;;;43.83;40.50;;;;;;;11.60;100.00;100743.69;5032147;28;20507;-49
2022/11/08 05:48:53;;;;;;;41.33;38.60;;;;;;;11.60;100.00;100746.34;5032774;28;20482;-48
2022/11/08 05:51:20;;;;;;;41.17;38.40;;;;;;;11.57;100.00;100745.94;5032436;28;20817;-48
2022/11/08 05:53:48;;;;;;;43.57;40.30;;;;;;;11.53;100.00;100747.34;5032602;28;20964;-49
2022/11/08 05:56:16;;;;;;;42.97;40.17;;;;;;;11.49;100.00;100754.13;5032236;28;20877;-53
2022/11/08 05:58:44;;;;;;;42.20;39.40;;;;;;;11.45;100.00;100742.22;5032674;28;20432;-49
2022/11/08 06:01:13;;;;;;;40.50;37.70;;;;;;;11.41;100.00;100739.13;5032027;28;20497;-49
2022/11/08 06:03:41;;;;;;;41.10;38.10;;;;;;;11.39;100.00;100735.84;5032403;28;20420;-47
2022/11/08 06:06:12;;;;;;;41.80;38.63;;;;;;;11.35;100.00;100745.25;5031656;28;20472;-52
2022/11/08 06:08:40;;;;;;;42.23;39.10;;;;;;;11.32;100.00;100734.97;5032403;28;20478;-47
2022/11/08 06:11:16;;;;;;;42.33;38.83;;;;;;;11.30;100.00;100728.19;5032181;28;20435;-48
2022/11/08 06:13:44;;;;;;;41.87;38.80;;;;;;;11.27;100.00;100740.09;5032212;28;20913;-46
2022/11/08 06:16:14;;;;;;;43.03;39.73;;;;;;;11.23;100.00;100738.84;5031571;28;20549;-48
2022/11/08 06:18:42;;;;;;;43.30;39.50;;;;;;;11.21;100.00;100738.25;5032371;28;20482;-48
2022/11/08 06:21:13;;;;;;;42.90;40.20;;;;;;;11.17;100.00;100734.31;5026491;28;20506;-46
2022/11/08 06:23:41;;;;;;;43.07;39.97;;;;;;;11.12;100.00;100731.44;5024039;28;20421;-48
2022/11/08 06:26:09;;;;;;;42.77;39.70;;;;;;;11.11;100.00;100727.09;5031520;28;21062;-49
2022/11/08 06:28:37;;;;;;;45.47;40.90;;;;;;;11.05;100.00;100725.28;5032006;28;20922;-50
2022/11/08 06:31:05;;;;;;;43.40;40.70;;;;;;;11.03;100.00;100720.13;5031699;28;20865;-51
2022/11/08 06:33:33;;;;;;;44.60;41.57;;;;;;;11.00;100.00;100720.50;5032175;28;20486;-50
2022/11/08 06:36:00;;;;;;;44.20;40.90;;;;;;;10.97;100.00;100730.75;5031463;28;20472;-48
2022/11/08 06:38:30;;;;;;;42.33;39.30;;;;;;;10.93;100.00;100719.66;5031977;28;20439;-51
2022/11/08 06:40:59;;;;;;;42.40;39.50;;;;;;;10.91;100.00;100724.38;5031780;28;20432;-52
2022/11/08 06:43:27;;;;;;;42.30;39.13;;;;;;;10.89;100.00;100720.28;5031789;28;20432;-53
2022/11/08 06:45:59;;;;;;;41.30;38.10;;;;;;;10.87;100.00;100725.78;5031417;28;20893;-48
2022/11/08 06:48:26;;;;;;;42.17;38.73;;;;;;;10.86;100.00;100724.16;5031856;28;20476;-46
2022/11/08 06:51:01;;;;;;;39.93;36.77;;;;;;;10.86;100.00;100736.69;5031590;28;20435;-49
2022/11/08 06:53:31;;;;;;;39.70;36.90;;;;;;;10.84;100.00;100733.38;5031788;28;20862;-53
2022/11/08 06:55:59;;;;;;;40.00;37.10;;;;;;;10.83;100.00;100726.41;5031053;28;20568;-53
2022/11/08 06:58:26;;;;;;;40.97;38.20;;;;;;;10.82;100.00;100730.06;5031927;28;20829;-50
2022/11/08 07:00:54;;;;;;;41.93;38.03;;;;;;;10.81;100.00;100736.44;5031490;28;21001;-51
2022/11/08 07:03:21;;;;;;;41.67;38.70;;;;;;;10.83;100.00;100745.06;5031681;28;20490;-50
2022/11/08 07:05:49;;;;;;;42.07;38.67;;;;;;;10.83;100.00;100742.41;5031101;28;20459;-49
2022/11/08 07:08:16;;;;;;;40.30;37.20;;;;;;;10.83;100.00;100742.41;5031346;28;20547;-51
2022/11/08 07:10:51;;;;;;;41.20;38.10;;;;;;;10.82;100.00;100744.25;5031320;28;20435;-51
2022/11/08 07:13:19;;;;;;;41.63;38.53;;;;;;;10.83;100.00;100737.06;5033681;28;20995;-51
2022/11/08 07:15:48;;;;;;;40.90;38.07;;;;;;;10.84;100.00;100738.72;5034260;28;20464;-49
2022/11/08 07:18:18;;;;;;;43.70;39.47;;;;;;;10.80;100.00;100732.97;5036088;28;20424;-54
2022/11/08 07:20:46;;;;;;;40.67;38.07;;;;;;;10.84;100.00;100736.06;5029786;28;20436;-45
2022/11/08 07:23:14;;;;;;;42.07;39.03;;;;;;;10.85;100.00;100737.69;5027145;28;20983;-50
2022/11/08 07:25:42;;;;;;;42.83;39.90;;;;;;;10.86;100.00;100734.00;5034874;28;20468;-45
2022/11/08 07:28:14;;;;;;;41.00;38.43;;;;;;;10.86;100.00;100726.81;5035275;28;20472;-48
2022/11/08 07:30:42;;;;;;;42.33;39.20;;;;;;;10.87;100.00;100720.44;5035472;28;20440;-49
2022/11/08 07:33:10;;;;;;;41.77;38.60;;;;;;;10.89;100.00;100728.28;5035772;28;20481;-45
2022/11/08 07:35:37;;;;;;;41.10;37.87;;;;;;;10.88;100.00;100727.44;5034766;28;20534;-46
2022/11/08 07:38:05;;;;;;;38.90;36.20;;;;;;;10.89;100.00;100726.44;5035172;28;20428;-47
2022/11/08 07:40:33;;;;;;;39.47;36.80;;;;;;;10.90;100.00;100727.25;5035337;28;20486;-45
2022/11/08 07:43:01;;;;;;;40.77;37.77;;;;;;;10.90;100.00;100732.59;5035020;28;20489;-45
2022/11/08 07:45:43;;;;;;;41.50;38.13;;;;;;;10.93;100.00;100721.53;5034669;28;20502;-48
2022/11/08 07:48:12;;;;;;;40.77;38.00;;;;;;;10.95;100.00;100720.31;5034989;28;20521;-45
2022/11/08 07:50:41;;;;;;;39.50;36.50;;;;;;;10.95;100.00;100724.81;5035200;28;20439;-48
2022/11/08 07:53:10;;;;;;;39.37;36.53;;;;;;;10.98;100.00;100719.91;5034923;28;20432;-46
2022/11/08 07:55:37;;;;;;;41.00;38.13;;;;;;;10.99;100.00;100715.41;5034633;28;20475;-45
2022/11/08 07:58:05;;;;;;;39.90;37.20;;;;;;;11.01;100.00;100713.34;5034894;28;20436;-48
2022/11/08 08:00:35;;;;;;;40.23;37.30;;;;;;;11.06;100.00;100714.38;5034877;28;20483;-49
2022/11/08 08:03:06;;;;;;;39.40;36.90;;;;;;;11.10;100.00;100715.63;5034934;28;20432;-49
2022/11/08 08:05:35;;;;;;;38.67;36.27;;;;;;;11.15;100.00;100712.34;5034419;28;20464;-47
2022/11/08 08:08:03;;;;;;;39.53;36.73;;;;;;;11.19;100.00;100716.28;5034674;28;20819;-46
2022/11/08 08:10:32;;;;;;;38.87;36.53;;;;;;;11.23;100.00;100719.38;5034842;28;20440;-48
2022/11/08 08:13:00;;;;;;;39.33;36.87;;;;;;;11.22;100.00;100720.38;5034344;28;20436;-50
2022/11/08 08:15:28;;;;;;;39.53;36.57;;;;;;;11.24;100.00;100727.16;5034179;28;20463;-44
2022/11/08 08:17:55;;;;;;;39.87;37.13;;;;;;;11.25;100.00;100723.47;5034368;28;20460;-48
2022/11/08 08:20:24;;;;;;;39.97;37.13;;;;;;;11.20;100.00;100725.91;5029140;28;20776;-49
2022/11/08 08:22:52;;;;;;;40.90;38.03;;;;;;;11.20;100.00;100714.44;5026084;28;20428;-47
2022/11/08 08:25:20;;;;;;;40.53;37.93;;;;;;;11.21;100.00;100716.88;5033795;28;20471;-47
2022/11/08 08:27:48;;;;;;;40.90;38.20;;;;;;;11.25;100.00;100711.97;5034527;28;20480;-46
2022/11/08 08:30:17;;;;;;;40.97;38.37;;;;;;;11.21;100.00;100714.22;5034599;28;20432;-49
2022/11/08 08:32:47;;;;;;;42.83;40.03;;;;;;;11.22;100.00;100702.53;5034215;28;20447;-49
2022/11/08 08:35:37;;;;;;;39.80;37.30;;;;;;;11.24;100.00;100704.97;5033837;28;20456;-45
2022/11/08 08:38:06;;;;;;;41.70;38.67;;;;;;;11.30;100.00;100705.00;5034265;28;20845;-48
2022/11/08 08:40:34;;;;;;;40.73;37.80;;;;;;;11.35;100.00;100697.19;5034277;28;20439;-46
2022/11/08 08:43:03;;;;;;;40.23;37.43;;;;;;;11.45;100.00;100697.63;5034273;28;20428;-47
2022/11/08 08:45:32;;;;;;;39.23;36.53;;;;;;;11.53;100.00;100694.75;5033739;28;20491;-50
2022/11/08 08:48:00;;;;;;;39.67;37.27;;;;;;;11.58;100.00;100694.16;5033840;28;20472;-48
2022/11/08 08:50:30;;;;;;;39.70;36.93;;;;;;;11.65;100.00;100694.97;5034060;28;20436;-47
2022/11/08 08:52:59;;;;;;;40.97;37.90;;;;;;;11.78;100.00;100695.03;5034004;28;20440;-48
2022/11/08 08:55:27;;;;;;;40.17;37.00;;;;;;;11.86;100.00;100688.66;5033442;28;20468;-49
2022/11/08 08:57:55;;;;;;;39.97;37.40;;;;;;;11.91;100.00;100681.69;5034106;28;20448;-48
2022/11/08 09:00:23;;;;;;;40.50;37.90;;;;;;;11.97;100.00;100675.50;5033953;28;20432;-49
2022/11/08 09:03:12;;;;;;;40.27;37.27;;;;;;;12.10;100.00;100677.31;5033632;28;20433;-50
2022/11/08 09:05:42;;;;;;;38.60;36.10;;;;;;;12.16;100.00;100674.63;5033258;28;20471;-49
2022/11/08 09:08:13;;;;;;;38.10;35.60;;;;;;;12.27;100.00;100667.84;5033607;28;20996;-48
2022/11/08 09:10:41;;;;;;;38.13;35.73;;;;;;;12.37;100.00;100665.53;5033770;28;20857;-50
2022/11/08 09:13:08;;;;;;;39.03;36.13;;;;;;;12.41;100.00;100657.94;5033964;28;20813;-48
2022/11/08 09:15:38;;;;;;;39.20;36.47;;;;;;;12.42;100.00;100663.09;5032948;28;20807;-47
2022/11/08 09:18:06;;;;;;;40.33;37.83;;;;;;;12.43;100.00;100656.69;5033636;28;20437;-47
2022/11/08 09:20:33;;;;;;;39.80;37.50;;;;;;;12.41;100.00;100645.38;5028293;28;20445;-48
2022/11/08 09:23:01;;;;;;;40.73;38.20;;;;;;;12.42;100.00;100648.88;5024855;28;20479;-47
2022/11/08 09:25:31;;;;;;;39.83;37.23;;;;;;;12.46;100.00;100647.41;5032900;28;20981;-45
2022/11/08 09:27:59;;;;;;;40.43;37.70;;;;;;;12.52;100.00;100638.53;5033016;28;20479;-47
2022/11/08 09:30:26;;;;;;;41.07;38.30;;;;;;;12.61;100.00;100632.75;5033364;28;20436;-53
2022/11/08 09:32:54;;;;;;;40.40;37.60;;;;;;;12.77;100.00;100631.44;5033202;28;20806;-49
2022/11/08 09:35:30;;;;;;;38.23;36.03;;;;;;;12.83;100.00;100632.44;5032119;28;20468;-47
2022/11/08 09:37:58;;;;;;;38.70;36.70;;;;;;;12.87;100.00;100628.31;5033239;28;20545;-50
2022/11/08 09:40:37;;;;;;;37.70;35.60;;;;;;;12.89;100.00;100621.72;5033100;28;20478;-48
2022/11/08 09:43:24;;;;;;;38.73;36.30;;;;;;;13.00;100.00;100628.22;5033088;28;20432;-51
2022/11/08 09:45:54;;;;;;;37.40;35.10;;;;;;;13.09;100.00;100626.97;5032436;28;20467;-52
2022/11/08 09:48:27;;;;;;;39.00;36.77;;;;;;;13.19;100.00;100614.75;5033007;28;20833;-48
2022/11/08 09:50:59;;;;;;;37.90;35.80;;;;;;;13.31;100.00;100620.25;5032542;28;20474;-49
2022/11/08 09:53:34;;;;;;;37.07;35.03;;;;;;;13.40;100.00;100624.28;5032958;28;20766;-45
2022/11/08 09:56:11;;;;;;;39.00;36.60;;;;;;;13.49;100.00;100620.31;5032355;28;20467;-45
2022/11/08 09:58:45;;;;;;;39.03;36.37;;;;;;;13.56;100.00;100613.03;5032901;28;20455;-48
2022/11/08 10:01:13;;;;;;;39.07;36.37;;;;;;;13.62;100.00;100614.03;5032418;28;20490;-48
2022/11/08 10:03:47;;;;;;;38.50;36.20;;;;;;;13.61;100.00;100610.53;5032691;28;20460;-45
2022/11/08 10:06:36;;;;;;;39.57;36.90;;;;;;;13.66;100.00;100605.31;5031941;28;20479;-51
2022/11/08 10:09:20;;;;;;;37.53;35.40;;;;;;;13.71;100.00;100605.47;5032531;28;20472;-45
2022/11/08 10:12:01;;;;;;;39.10;36.70;;;;;;;13.78;100.00;100602.72;5032130;28;20432;-48
2022/11/08 10:14:43;;;;;;;38.00;35.93;;;;;;;13.81;100.00;100607.66;5032018;28;20463;-48
2022/11/08 10:17:46;;;;;;;36.80;34.80;;;;;;;13.84;100.00;100601.84;5032187;28;20468;-45
2022/11/08 10:20:24;;;;;;;38.10;35.80;;;;;;;14.03;100.00;100600.84;5027614;28;20520;-50
2022/11/08 10:22:58;;;;;;;37.67;35.67;;;;;;;14.18;100.00;100587.88;5013607;28;20488;-52
2022/11/08 10:25:33;;;;;;;37.17;34.67;;;;;;;14.40;100.00;100588.25;5012191;28;20460;-47
2022/11/08 10:28:03;;;;;;;37.70;35.13;;;;;;;14.56;100.00;100571.56;5012477;28;20453;-49
2022/11/08 10:30:34;;;;;;;38.63;36.13;;;;;;;14.73;100.00;100572.56;5012318;28;20441;-46
2022/11/08 10:33:02;;;;;;;37.10;35.10;;;;;;;14.78;100.00;100570.00;5012196;28;20930;-48
2022/11/08 10:35:38;;;;;;;37.53;35.50;;;;;;;15.02;100.00;100556.66;5011913;28;20881;-49
2022/11/08 10:38:16;;;;;;;37.17;35.17;;;;;;;15.17;100.00;100562.44;5012448;28;20499;-45
2022/11/08 10:40:50;;;;;;;36.40;34.60;;;;;;;15.25;100.00;100562.09;5011961;28;21019;-50
2022/11/08 10:43:27;;;;;;;36.80;34.83;;;;;;;15.38;100.00;100546.53;5012469;28;20437;-49
2022/11/08 10:45:55;;;;;;;35.60;33.77;;;;;;;15.49;100.00;100550.34;5011688;28;20453;-50
2022/11/08 10:48:23;;;;;;;35.50;33.70;;;;;;;15.59;100.00;100552.44;5011165;28;20931;-47
2022/11/08 10:50:52;;;;;;;34.53;33.03;;;;;;;15.52;100.00;100549.88;5011924;28;20444;-49
2022/11/08 10:53:24;;;;;;;33.90;32.17;;;;;;;15.53;100.00;100540.75;5012111;28;20429;-49
2022/11/08 10:55:58;;;;;;;34.50;32.70;;;;;;;15.55;100.00;100535.16;5011619;28;20481;-47
2022/11/08 10:58:36;;;;;;;32.90;31.40;;;;;;;15.46;100.00;100537.34;5012066;28;20980;-45
2022/11/08 11:01:07;;;;;;;31.83;30.23;;;;;;;15.41;100.00;100534.53;5011797;28;20877;-46
2022/11/08 11:03:35;;;;;;;31.70;30.17;;;;;;;15.28;100.00;100532.06;5011961;28;20433;-47
2022/11/08 11:06:04;;;;;;;30.97;29.57;;;;;;;15.25;100.00;100527.16;5011387;28;20547;-48
2022/11/08 11:08:32;;;;;;;32.10;30.60;;;;;;;15.26;100.00;100524.22;5012101;28;20827;-47
2022/11/08 11:11:22;;;;;;;31.63;30.23;;;;;;;15.25;100.00;100513.72;5011928;28;20441;-46
2022/11/08 11:14:05;;;;;;;30.37;28.60;;;;;;;15.21;100.00;100509.84;5011896;28;20440;-45
2022/11/08 11:16:33;;;;;;;31.00;29.20;;;;;;;15.23;100.00;100505.09;5011130;28;20997;-47
2022/11/08 11:19:02;;;;;;;30.73;29.00;;;;;;;15.31;100.00;100502.88;5011911;28;20487;-47
2022/11/08 11:21:35;;;;;;;28.27;26.90;;;;;;;15.34;100.00;100499.72;5019582;28;20497;-46
2022/11/08 11:24:09;;;;;;;28.87;27.30;;;;;;;15.38;99.98;100500.88;5025800;28;20435;-50
2022/11/08 11:26:41;;;;;;;28.63;27.17;;;;;;;15.43;99.99;100495.63;5031467;28;20447;-49
2022/11/08 11:29:19;;;;;;;30.90;29.10;;;;;;;15.47;100.00;100493.34;5031573;28;20527;-45
2022/11/08 11:31:49;;;;;;;27.70;26.60;;;;;;;15.49;98.49;100491.22;5031474;28;20458;-47
2022/11/08 11:34:35;;;;;;;28.47;27.23;;;;;;;15.40;98.44;100493.41;5031240;28;20473;-47
2022/11/08 11:37:12;;;;;;;31.23;29.53;;;;;;;15.36;98.24;100486.03;5031195;28;20984;-44
2022/11/08 11:39:48;;;;;;;27.27;26.07;;;;;;;15.24;99.10;100488.72;5031569;28;20523;-48